createdAt,value
2018-12-25T00:02:28.885Z,2.10
2018-12-25T00:05:17.371Z,2.40
2018-12-25T00:11:07.399Z,3.40
2018-12-25T00:13:36.810Z,4.03
2018-12-25T00:16:45.513Z,3.43
2018-12-25T00:19:34.317Z,3.37
2018-12-25T00:22:43.967Z,5.00
2018-12-25T00:28:27.834Z,2.80
2018-12-25T00:31:10.019Z,3.67
2018-12-25T00:33:51.126Z,3.47
2018-12-25T00:42:50.512Z,5.63
2018-12-25T00:48:22.029Z,5.43
2018-12-25T00:54:05.568Z,4.00
2018-12-25T00:56:35.128Z,3.63
2018-12-25T00:59:43.839Z,3.80
2018-12-25T01:05:39.481Z,3.20
2018-12-25T01:08:20.464Z,4.93
2018-12-25T01:11:01.841Z,3.53
2018-12-25T01:13:43.620Z,6.20
2018-12-25T01:16:24.663Z,3.47
2018-12-25T01:19:05.626Z,4.43
2018-12-25T01:21:49.047Z,4.37
2018-12-25T01:24:18.560Z,4.07
2018-12-25T01:26:48.124Z,4.57
2018-12-25T01:29:17.580Z,4.50
2018-12-25T01:35:02.233Z,6.70
2018-12-25T01:38:11.105Z,5.27
2018-12-25T01:40:52.290Z,7.00
2018-12-25T01:43:22.036Z,5.70
2018-12-25T01:46:10.938Z,6.93
2018-12-25T01:48:59.677Z,6.03
2018-12-25T01:51:29.129Z,6.17
2018-12-25T01:57:25.345Z,5.93
2018-12-25T02:03:15.040Z,6.00
2018-12-25T02:08:47.703Z,10.23
2018-12-25T02:11:56.486Z,9.60
2018-12-25T02:14:26.521Z,12.63
2018-12-25T02:16:55.975Z,19.10
2018-12-25T02:20:04.842Z,22.87
2018-12-25T02:22:53.485Z,28.17
2018-12-25T02:25:34.337Z,15.00
2018-12-25T02:31:06.309Z,10.83
2018-12-25T02:33:55.156Z,9.20
2018-12-25T02:37:04.080Z,10.93
2018-12-25T02:43:01.625Z,6.87
2018-12-25T02:45:31.282Z,5.43
2018-12-25T02:48:39.995Z,7.60
2018-12-25T02:54:23.494Z,6.57
2018-12-25T02:56:54.603Z,5.37
2018-12-25T03:00:03.473Z,6.20
2018-12-25T03:05:34.629Z,7.10
2018-12-25T03:10:54.564Z,8.27
2018-12-25T03:13:43.089Z,7.33
2018-12-25T03:16:51.836Z,7.47
2018-12-25T03:22:36.517Z,5.90
2018-12-25T03:25:05.960Z,5.43
2018-12-25T03:27:47.259Z,4.03
2018-12-25T03:30:28.393Z,3.90
2018-12-25T03:33:37.316Z,4.30
2018-12-25T03:36:07.262Z,7.03
2018-12-25T03:39:15.964Z,5.03
2018-12-25T03:44:51.581Z,3.00
2018-12-25T03:47:21.635Z,3.10
2018-12-25T03:50:30.352Z,3.40
2018-12-25T03:56:12.645Z,3.67
2018-12-25T04:04:20.825Z,3.17
2018-12-25T04:06:50.453Z,3.57
2018-12-25T04:09:19.926Z,4.37
2018-12-25T04:12:28.860Z,3.57
2018-12-25T04:18:00.070Z,4.43
2018-12-25T04:20:30.365Z,3.87
2018-12-25T04:26:34.501Z,2.67
2018-12-25T04:29:04.254Z,3.87
2018-12-25T04:32:13.374Z,4.37
2018-12-25T04:37:36.074Z,2.90
2018-12-25T04:42:54.247Z,4.00
2018-12-25T04:46:02.982Z,2.83
2018-12-25T04:49:12.331Z,3.40
2018-12-25T04:54:36.805Z,4.53
2018-12-25T04:57:06.198Z,4.20
2018-12-25T04:59:35.617Z,3.87
2018-12-25T05:02:05.240Z,4.67
2018-12-25T05:07:55.317Z,3.10
2018-12-25T05:10:36.234Z,3.90
2018-12-25T05:13:17.011Z,3.20
2018-12-25T05:18:48.346Z,3.63
2018-12-25T05:21:57.260Z,3.43
2018-12-25T05:25:06.769Z,2.83
2018-12-25T05:27:55.773Z,3.67
2018-12-25T05:33:21.071Z,3.43
2018-12-25T05:38:51.858Z,3.50
2018-12-25T05:42:00.648Z,3.93
2018-12-25T05:44:43.443Z,3.20
2018-12-25T05:47:24.703Z,2.80
2018-12-25T05:50:34.373Z,3.43
2018-12-25T05:59:20.479Z,2.57
2018-12-25T06:02:29.533Z,3.30
2018-12-25T06:05:00.034Z,3.03
2018-12-25T06:07:48.853Z,3.67
2018-12-25T06:10:57.581Z,3.23
2018-12-25T06:13:26.964Z,5.13
2018-12-25T06:19:04.237Z,3.77
2018-12-25T06:21:52.755Z,4.27
2018-12-25T06:24:41.230Z,2.63
2018-12-25T06:27:49.954Z,2.30
2018-12-25T06:30:19.686Z,2.70
2018-12-25T06:32:49.352Z,2.93
2018-12-25T06:35:37.856Z,3.00
2018-12-25T06:38:20.683Z,2.90
2018-12-25T06:44:05.187Z,3.03
2018-12-25T06:49:36.955Z,2.70
2018-12-25T06:52:06.849Z,2.90
2018-12-25T06:55:15.561Z,4.73
2018-12-25T06:57:56.670Z,3.73
2018-12-25T07:01:05.724Z,3.00
2018-12-25T07:03:35.233Z,3.93
2018-12-25T07:06:23.813Z,3.97
2018-12-25T07:11:56.725Z,3.93
2018-12-25T07:17:22.094Z,4.03
2018-12-25T07:20:30.922Z,2.47
2018-12-25T07:23:00.619Z,2.63
2018-12-25T07:25:49.179Z,2.23
2018-12-25T07:28:57.986Z,1.20
2018-12-25T07:31:28.253Z,1.10
2018-12-25T07:33:57.742Z,0.90
2018-12-25T07:37:06.978Z,0.93
2018-12-25T07:42:45.305Z,0.50
2018-12-25T07:45:14.792Z,0.37
2018-12-25T07:48:23.557Z,0.20
2018-12-25T07:51:11.893Z,0.40
2018-12-25T07:54:20.909Z,1.03
2018-12-25T07:56:50.654Z,0.33
2018-12-25T07:59:21.291Z,0.43
2018-12-25T08:02:02.797Z,0.67
2018-12-25T08:08:00.725Z,0.50
2018-12-25T08:13:32.560Z,0.30
2018-12-25T08:16:41.453Z,1.20
2018-12-25T08:19:50.175Z,0.93
2018-12-25T08:22:20.178Z,1.60
2018-12-25T08:24:49.582Z,3.07
2018-12-25T08:27:38.092Z,0.60
2018-12-25T08:33:22.952Z,0.50
2018-12-25T08:36:11.592Z,0.50
2018-12-25T08:41:57.166Z,1.13
2018-12-25T08:44:26.559Z,0.60
2018-12-25T08:47:15.692Z,0.87
2018-12-25T08:49:45.138Z,0.83
2018-12-25T08:52:14.539Z,0.77
2018-12-25T08:57:58.834Z,2.50
2018-12-25T09:03:24.147Z,3.40
2018-12-25T09:06:13.169Z,2.07
2018-12-25T09:09:02.217Z,1.17
2018-12-25T09:18:01.141Z,4.53
2018-12-25T09:20:30.951Z,2.57
2018-12-25T09:23:00.420Z,2.97
2018-12-25T09:28:26.029Z,2.30
2018-12-25T09:31:14.550Z,2.47
2018-12-25T09:34:24.219Z,2.70
2018-12-25T09:43:00.932Z,2.13
2018-12-25T09:48:38.667Z,3.67
2018-12-25T09:51:08.516Z,8.63
2018-12-25T09:54:17.430Z,2.63
2018-12-25T09:56:46.885Z,4.57
2018-12-25T09:59:55.659Z,6.17
2018-12-25T10:02:26.796Z,6.13
2018-12-25T10:05:35.772Z,2.40
2018-12-25T10:17:21.941Z,4.27
2018-12-25T10:25:41.321Z,8.60
2018-12-25T10:28:29.856Z,7.60
2018-12-25T10:37:15.707Z,8.87
2018-12-25T10:39:45.398Z,11.13
2018-12-25T10:42:15.021Z,5.63
2018-12-25T10:45:22.356Z,6.83
2018-12-25T10:48:03.833Z,7.27
2018-12-25T10:50:44.730Z,9.07
2018-12-25T10:56:26.666Z,7.43
2018-12-25T11:02:10.630Z,10.33
2018-12-25T11:07:24.232Z,4.60
2018-12-25T11:09:53.786Z,9.30
2018-12-25T11:12:23.223Z,5.73
2018-12-25T11:14:52.609Z,4.70
2018-12-25T11:17:22.518Z,10.90
2018-12-25T11:19:54.687Z,10.77
2018-12-25T11:22:24.225Z,9.43
2018-12-25T11:24:53.848Z,7.83
2018-12-25T11:27:23.315Z,11.60
2018-12-25T11:29:52.904Z,9.27
2018-12-25T11:32:22.413Z,12.80
2018-12-25T11:34:51.963Z,9.37
2018-12-25T11:37:21.526Z,11.73
2018-12-25T11:39:51.998Z,14.43
2018-12-25T11:42:21.423Z,12.00
2018-12-25T11:44:50.875Z,12.20
2018-12-25T11:47:20.273Z,6.67
2018-12-25T11:49:49.836Z,8.43
2018-12-25T11:52:19.260Z,5.43
2018-12-25T11:54:49.614Z,7.80
2018-12-25T11:57:19.158Z,10.13
2018-12-25T11:59:48.909Z,7.00
2018-12-25T12:02:21.469Z,8.40
2018-12-25T12:04:50.917Z,8.00
2018-12-25T12:07:20.457Z,10.93
2018-12-25T12:09:49.993Z,7.80
2018-12-25T12:12:19.426Z,6.70
2018-12-25T12:14:49.053Z,6.73
2018-12-25T12:17:18.655Z,12.10
2018-12-25T12:19:48.396Z,6.10
2018-12-25T12:22:17.911Z,6.40
2018-12-25T12:24:47.360Z,7.57
2018-12-25T12:27:17.025Z,6.70
2018-12-25T12:32:41.869Z,7.93
2018-12-25T12:35:11.400Z,7.63
2018-12-25T12:37:40.790Z,4.27
2018-12-25T12:40:10.295Z,6.93
2018-12-25T12:42:39.937Z,7.70
2018-12-25T12:45:09.509Z,7.37
2018-12-25T12:47:40.090Z,6.73
2018-12-25T12:50:09.910Z,10.13
2018-12-25T12:52:45.402Z,7.60
2018-12-25T12:55:10.724Z,10.17
2018-12-25T12:57:40.454Z,11.77
2018-12-25T13:00:10.248Z,2.83
2018-12-25T13:05:36.641Z,5.77
2018-12-25T13:08:06.041Z,5.70
2018-12-25T13:10:35.539Z,6.83
2018-12-25T13:13:05.068Z,8.40
2018-12-25T13:15:34.506Z,5.57
2018-12-25T13:18:03.953Z,7.53
2018-12-25T13:20:33.510Z,6.27
2018-12-25T13:23:03.044Z,6.57
2018-12-25T13:25:32.461Z,6.13
2018-12-25T13:28:02.025Z,8.80
2018-12-25T13:30:31.428Z,7.30
2018-12-25T13:33:00.827Z,8.17
2018-12-25T13:35:30.338Z,8.57
2018-12-25T13:38:00.194Z,9.93
2018-12-25T13:40:29.668Z,10.73
2018-12-25T13:42:59.178Z,8.50
2018-12-25T13:45:29.145Z,6.63
2018-12-25T13:47:58.610Z,6.10
2018-12-25T13:50:28.066Z,6.77
2018-12-25T13:53:02.839Z,7.53
2018-12-25T13:55:28.767Z,8.23
2018-12-25T13:57:58.408Z,6.90
2018-12-25T14:00:27.791Z,7.57
2018-12-25T14:02:57.468Z,5.30
2018-12-25T14:05:26.933Z,6.93
2018-12-25T14:07:56.569Z,8.47
2018-12-25T14:10:26.008Z,5.43
2018-12-25T14:12:55.431Z,8.47
2018-12-25T14:15:25.108Z,7.03
2018-12-25T14:17:54.542Z,10.53
2018-12-25T14:20:24.051Z,6.93
2018-12-25T14:22:53.446Z,9.77
2018-12-25T14:25:22.878Z,8.90
2018-12-25T14:27:52.726Z,4.73
2018-12-25T14:30:22.155Z,6.10
2018-12-25T14:32:51.706Z,8.13
2018-12-25T14:35:21.341Z,10.07
2018-12-25T14:37:53.744Z,6.47
2018-12-25T14:40:23.207Z,6.87
2018-12-25T14:42:52.735Z,3.93
2018-12-25T14:45:22.242Z,8.80
2018-12-25T14:47:51.733Z,6.83
2018-12-25T14:50:21.931Z,7.37
2018-12-25T14:52:51.334Z,4.00
2018-12-25T14:55:20.890Z,2.93
2018-12-25T14:57:50.308Z,4.23
2018-12-25T15:00:19.841Z,3.57
2018-12-25T15:02:49.219Z,2.20
2018-12-25T15:05:18.739Z,3.27
2018-12-25T15:07:48.234Z,2.73
2018-12-25T15:10:17.678Z,5.23
2018-12-25T15:12:47.190Z,7.27
2018-12-25T15:15:16.586Z,1.77
2018-12-25T15:17:46.014Z,2.60
2018-12-25T15:20:15.468Z,3.23
2018-12-25T15:22:44.921Z,5.17
2018-12-25T15:25:14.294Z,2.97
2018-12-25T15:27:43.716Z,9.97
2018-12-25T15:30:13.219Z,4.60
2018-12-25T15:32:42.783Z,1.80
2018-12-25T15:35:12.606Z,2.03
2018-12-25T15:37:42.083Z,2.53
2018-12-25T15:40:11.529Z,3.40
2018-12-25T15:42:41.360Z,2.43
2018-12-25T15:45:10.995Z,2.80
2018-12-25T15:47:40.463Z,2.63
2018-12-25T15:50:09.983Z,4.10
2018-12-25T15:52:39.383Z,1.60
2018-12-25T15:55:09.351Z,2.30
2018-12-25T15:57:38.786Z,1.43
2018-12-25T16:00:12.803Z,3.10
2018-12-25T16:02:42.542Z,0.83
2018-12-25T16:05:12.090Z,1.40
2018-12-25T16:07:41.564Z,1.73
2018-12-25T16:10:10.939Z,1.20
2018-12-25T16:12:40.384Z,1.90
2018-12-25T16:15:09.975Z,1.90
2018-12-25T16:17:39.346Z,0.63
2018-12-25T16:20:11.197Z,0.70
2018-12-25T16:22:40.655Z,1.60
2018-12-25T16:25:10.033Z,1.20
2018-12-25T16:27:39.741Z,1.37
2018-12-25T16:30:09.848Z,1.90
2018-12-25T16:32:39.330Z,1.80
2018-12-25T16:35:08.871Z,2.60
2018-12-25T16:37:39.059Z,2.37
2018-12-25T16:40:09.941Z,0.90
2018-12-25T16:42:39.425Z,1.67
2018-12-25T16:45:09.006Z,1.90
2018-12-25T16:47:38.580Z,1.80
2018-12-25T16:50:08.396Z,2.40
2018-12-25T16:52:37.860Z,2.37
2018-12-25T16:55:07.398Z,2.37
2018-12-25T16:57:36.819Z,2.90
2018-12-25T17:00:07.436Z,1.40
2018-12-25T17:02:36.887Z,2.77
2018-12-25T17:05:06.565Z,0.73
2018-12-25T17:07:36.316Z,1.07
2018-12-25T17:10:06.117Z,0.43
2018-12-25T17:12:35.608Z,2.43
2018-12-25T17:15:05.379Z,0.90
2018-12-25T17:17:34.752Z,0.87
2018-12-25T17:20:04.211Z,1.20
2018-12-25T17:22:33.704Z,0.83
2018-12-25T17:25:03.600Z,1.10
2018-12-25T17:27:32.953Z,2.33
2018-12-25T17:30:02.358Z,1.33
2018-12-25T17:32:31.944Z,2.87
2018-12-25T17:35:01.315Z,0.97
2018-12-25T17:37:30.773Z,5.50
2018-12-25T17:40:00.251Z,2.70
2018-12-25T17:42:29.659Z,1.50
2018-12-25T17:44:59.109Z,5.77
2018-12-25T17:47:28.479Z,2.33
2018-12-25T17:49:57.882Z,0.77
2018-12-25T17:52:27.276Z,2.63
2018-12-25T17:54:56.944Z,1.93
2018-12-25T17:57:26.369Z,2.33
2018-12-25T17:59:55.771Z,3.33
2018-12-25T18:02:25.242Z,1.93
2018-12-25T18:04:54.987Z,1.37
2018-12-25T18:07:24.438Z,2.90
2018-12-25T18:09:53.983Z,3.43
2018-12-25T18:12:23.358Z,2.70
2018-12-25T18:14:52.725Z,1.13
2018-12-25T18:17:22.165Z,4.27
2018-12-25T18:19:51.615Z,4.50
2018-12-25T18:22:21.035Z,3.10
2018-12-25T18:24:50.457Z,3.23
2018-12-25T18:27:19.950Z,2.50
2018-12-25T18:29:49.334Z,5.50
2018-12-25T18:32:18.732Z,3.30
2018-12-25T18:34:48.148Z,4.17
2018-12-25T18:37:17.558Z,7.33
2018-12-25T18:39:57.583Z,2.80
2018-12-25T18:42:27.093Z,4.93
2018-12-25T18:44:56.618Z,3.27
2018-12-25T18:47:26.123Z,5.37
2018-12-25T18:49:55.579Z,4.20
2018-12-25T18:52:24.997Z,4.57
2018-12-25T18:54:54.519Z,3.37
2018-12-25T18:57:23.918Z,5.30
2018-12-25T18:59:53.374Z,3.20
2018-12-25T19:02:22.793Z,7.10
2018-12-25T19:04:52.351Z,6.13
2018-12-25T19:07:21.749Z,6.20
2018-12-25T19:09:51.230Z,4.97
2018-12-25T19:12:20.697Z,3.07
2018-12-25T19:15:01.753Z,5.23
2018-12-25T19:17:31.152Z,6.33
2018-12-25T19:20:00.593Z,5.63
2018-12-25T19:22:30.799Z,4.07
2018-12-25T19:25:00.296Z,3.53
2018-12-25T19:27:29.928Z,3.40
2018-12-25T19:29:59.521Z,4.20
2018-12-25T19:32:28.938Z,4.90
2018-12-25T19:34:58.333Z,6.47
2018-12-25T19:37:27.931Z,3.80
2018-12-25T19:39:57.644Z,3.57
2018-12-25T19:42:27.252Z,4.60
2018-12-25T19:44:56.953Z,7.63
2018-12-25T19:47:26.358Z,2.43
2018-12-25T19:49:55.940Z,3.60
2018-12-25T19:52:25.290Z,2.93
2018-12-25T19:54:54.703Z,7.40
2018-12-25T19:57:24.404Z,4.63
2018-12-25T19:59:53.895Z,4.40
2018-12-25T20:02:25.865Z,3.13
2018-12-25T20:05:33.587Z,1.97
2018-12-25T20:08:41.586Z,6.10
2018-12-25T20:12:04.141Z,1.73
2018-12-25T20:15:14.312Z,5.20
2018-12-25T20:18:23.159Z,4.27
2018-12-25T20:21:15.408Z,4.33
2018-12-25T20:24:26.494Z,8.50
2018-12-25T20:27:51.922Z,4.93
2018-12-25T20:31:13.954Z,3.17
2018-12-25T20:34:29.799Z,2.73
2018-12-25T20:37:27.940Z,5.07
2018-12-25T20:40:16.490Z,2.57
2018-12-25T20:43:35.633Z,3.70
2018-12-25T20:46:30.729Z,6.13
2018-12-25T20:50:02.083Z,4.03
2018-12-25T20:53:28.464Z,2.17
2018-12-25T20:56:43.536Z,4.93
2018-12-25T20:59:48.122Z,3.00
2018-12-25T21:02:56.132Z,6.03
2018-12-25T21:06:03.544Z,2.67
2018-12-25T21:09:11.886Z,6.97
2018-12-25T21:12:19.547Z,3.27
2018-12-25T21:15:27.343Z,3.07
2018-12-25T21:18:35.111Z,4.20
2018-12-25T21:21:43.001Z,2.67
2018-12-25T21:24:50.384Z,2.10
2018-12-25T21:27:38.427Z,2.97
2018-12-25T21:30:28.088Z,2.10
2018-12-25T21:36:13.239Z,3.03
2018-12-25T21:38:43.053Z,2.47
2018-12-25T21:41:12.863Z,2.37
2018-12-25T21:43:42.425Z,1.77
2018-12-25T21:46:12.253Z,1.47
2018-12-25T21:49:20.948Z,2.30
2018-12-25T21:51:50.611Z,2.60
2018-12-25T21:54:20.720Z,2.70
2018-12-25T21:56:50.152Z,2.77
2018-12-25T21:59:20.327Z,1.93
2018-12-25T22:01:50.804Z,2.53
2018-12-25T22:04:20.962Z,3.80
2018-12-25T22:06:50.413Z,2.70
2018-12-25T22:09:20.202Z,2.60
2018-12-25T22:11:49.624Z,1.47
2018-12-25T22:14:19.142Z,3.10
2018-12-25T22:16:48.611Z,1.67
2018-12-25T22:19:18.150Z,3.13
2018-12-25T22:21:47.629Z,0.97
2018-12-25T22:24:17.007Z,0.83
2018-12-25T22:26:46.444Z,2.97
2018-12-25T22:29:15.831Z,3.10
2018-12-25T22:31:45.233Z,1.97
2018-12-25T22:34:14.614Z,0.60
2018-12-25T22:36:44.134Z,0.53
2018-12-25T22:39:13.592Z,4.20
2018-12-25T22:41:43.027Z,1.07
2018-12-25T22:44:12.507Z,2.20
2018-12-25T22:46:42.002Z,1.70
2018-12-25T22:49:11.493Z,2.57
2018-12-25T22:51:40.916Z,1.97
2018-12-25T22:54:10.313Z,0.60
2018-12-25T22:56:40.177Z,0.77
2018-12-25T22:59:09.660Z,1.53
2018-12-25T23:01:39.116Z,1.67
2018-12-25T23:07:16.183Z,1.63
2018-12-25T23:09:45.658Z,2.77
2018-12-25T23:12:15.050Z,2.40
2018-12-25T23:14:44.444Z,0.50
2018-12-25T23:17:14.037Z,3.23
2018-12-25T23:19:43.453Z,1.00
2018-12-25T23:22:12.972Z,3.40
2018-12-25T23:24:42.445Z,1.37
2018-12-25T23:27:11.849Z,0.83
2018-12-25T23:29:41.894Z,0.90
2018-12-25T23:32:11.471Z,1.47
2018-12-25T23:35:20.227Z,2.10
2018-12-25T23:52:49.922Z,0.40
2018-12-25T23:55:58.803Z,2.00
2018-12-25T23:59:07.623Z,1.23
